Flight Track Log - Related Links

Times and Time Zones

All times are in EDT time to prevent confusion due to time zone crossing. See the CTL17 flight status page for this flight to view local times or setup timezone preferences in your user account.

Time Position Orientation Groundspeed Altitude Reporting Facility
EDT Latitude Longitude Course Direction KTS MPH feet Rate Location/Type
Tue 03:52:14 PM 42.6603 -83.4433 278° West 115 132 1,500  Level Cleveland Center
Tue 03:52:39 PM 42.6619 -83.4603 278° West 120 138 1,900 1,047 Climbing Cleveland Center
Tue 03:53:40 PM 42.6606 -83.5083 268° West 152 175 3,000 1,082 Climbing Cleveland Center
Tue 03:55:00 PM 42.6922 -83.4613 48° Northeast  Level FlightAware Approximate
Tue 04:02:00 PM 42.9322 -83.4021 321° Northwest  Level FlightAware Approximate
Tue 04:03:00 PM 42.9596 -83.4322 321° Northwest  Level FlightAware Approximate
Tue 04:04:00 PM 42.9870 -83.4624 321° Northwest  Level FlightAware Approximate
Tue 04:05:00 PM 43.0144 -83.4926 321° Northwest  Level FlightAware Approximate
Tue 04:06:00 PM 43.0418 -83.5228 321° Northwest  Level FlightAware Approximate
Tue 04:07:00 PM 43.0691 -83.5530 321° Northwest  Level FlightAware Approximate
Tue 04:08:00 PM 43.0965 -83.5833 321° Northwest  Level FlightAware Approximate
Tue 04:09:00 PM 43.1239 -83.6136 321° Northwest  Level FlightAware Approximate
Tue 04:10:00 PM 43.1512 -83.6439 321° Northwest  Level FlightAware Approximate
Tue 04:11:00 PM 43.1786 -83.6743 321° Northwest  Level FlightAware Approximate
Tue 04:12:00 PM 43.2059 -83.7047 321° Northwest  Level FlightAware Approximate
Tue 04:13:00 PM 43.2326 -83.7361 318° Northwest  Level FlightAware Approximate
Tue 04:14:00 PM 43.2589 -83.7682 318° Northwest  Level FlightAware Approximate
Tue 04:15:00 PM 43.2852 -83.8003 318° Northwest  Level FlightAware Approximate
Tue 04:16:00 PM 43.3115 -83.8324 318° Northwest  Level FlightAware Approximate
Tue 04:17:00 PM 43.3377 -83.8645 318° Northwest  Level FlightAware Approximate
Tue 04:18:00 PM 43.3640 -83.8967 318° Northwest  Level FlightAware Approximate
Tue 04:19:00 PM 43.3923 -83.9255 324° Northwest  Level FlightAware Approximate
Tue 04:20:00 PM 43.4207 -83.9540 324° Northwest  Level FlightAware Approximate
Tue 04:21:00 PM 43.4492 -83.9825 324° Northwest  Level FlightAware Approximate
Tue 04:22:00 PM 43.4777 -84.0109 324° Northwest  Level FlightAware Approximate
Tue 04:23:00 PM 43.5043 -84.0419 305° West  Level FlightAware Approximate

Login

Don't have an account? Register now (free) for customized features, flight alerts, and more!